Time;durP1;ratioP1;P1;durP2;ratioP2;P2;SDS_P1;SDS_P2;PMS_P1;PMS_P2;Temp;Humidity;BMP_temperature;BMP_pressure;BME280_temperature;BME280_humidity;BME280_pressure;Samples;Min_cycle;Max_cycle;Signal;HPM_P1;HPM_P2
2021/12/06 00:01:46;;;;;;;7.03;4.07;;;6.80;99.90;;;;;;4158826;28;20038;-62
2021/12/06 00:03:54;;;;;;;7.82;3.97;;;6.80;99.90;;;;;;4159860;28;20457;-62
2021/12/06 00:05:55;;;;;;;8.05;3.80;;;6.80;99.90;;;;;;4155802;28;20473;-62
2021/12/06 00:07:56;;;;;;;8.60;3.50;;;6.80;99.90;;;;;;4159513;28;20080;-62
2021/12/06 00:09:56;;;;;;;6.68;3.50;;;6.80;99.90;;;;;;4159070;28;20022;-62
2021/12/06 00:12:00;;;;;;;6.20;3.65;;;6.80;99.90;;;;;;4157085;28;20101;-62
2021/12/06 00:14:03;;;;;;;4.93;3.40;;;6.80;99.90;;;;;;4166389;28;20464;-62
2021/12/06 00:16:08;;;;;;;4.72;2.97;;;6.80;99.90;;;;;;4150377;28;20415;-62
2021/12/06 00:18:08;;;;;;;5.60;3.63;;;6.80;99.90;;;;;;4158901;28;20104;-62
2021/12/06 00:20:12;;;;;;;6.55;3.67;;;6.80;99.90;;;;;;4156497;28;20037;-63
2021/12/06 00:22:16;;;;;;;6.30;4.43;;;6.60;99.90;;;;;;4159740;28;20041;-62
2021/12/06 00:24:17;;;;;;;7.43;4.68;;;6.40;99.90;;;;;;4154345;28;20112;-62
2021/12/06 00:26:18;;;;;;;9.80;4.80;;;6.20;99.90;;;;;;4157229;28;20104;-62
2021/12/06 00:28:19;;;;;;;8.95;4.05;;;6.20;99.90;;;;;;4158789;28;20535;-62
2021/12/06 00:30:20;;;;;;;7.55;4.05;;;6.20;99.90;;;;;;4152911;28;20029;-62
2021/12/06 00:32:21;;;;;;;8.15;3.97;;;6.20;99.90;;;;;;4158909;28;20096;-62
2021/12/06 00:34:24;;;;;;;8.23;4.20;;;6.30;99.90;;;;;;4158723;28;20547;-62
2021/12/06 00:36:30;;;;;;;5.97;3.75;;;6.20;99.90;;;;;;4157906;28;20026;-62
2021/12/06 00:38:32;;;;;;;7.50;4.05;;;6.30;99.90;;;;;;4158852;28;20124;-62
2021/12/06 00:40:46;;;;;;;5.45;3.72;;;6.30;99.90;;;;;;4156231;28;20041;-62
2021/12/06 00:42:47;;;;;;;6.80;3.50;;;6.40;99.90;;;;;;4158801;28;20033;-61
2021/12/06 00:44:47;;;;;;;5.00;3.63;;;6.40;99.90;;;;;;4159573;28;20102;-62
2021/12/06 00:46:48;;;;;;;5.38;3.30;;;6.40;99.90;;;;;;4151243;28;20045;-62
2021/12/06 00:48:49;;;;;;;5.28;3.38;;;6.50;99.90;;;;;;4158228;28;20116;-62
2021/12/06 00:50:50;;;;;;;5.68;3.30;;;6.50;99.90;;;;;;4157921;28;20049;-62
2021/12/06 00:52:51;;;;;;;4.47;3.28;;;6.50;99.90;;;;;;4158276;28;20069;-62
2021/12/06 00:54:51;;;;;;;5.97;3.38;;;6.50;99.90;;;;;;4157411;28;20041;-62
2021/12/06 00:56:52;;;;;;;4.03;2.75;;;6.50;99.90;;;;;;4158598;28;20029;-62
2021/12/06 00:58:53;;;;;;;5.60;3.15;;;6.50;99.90;;;;;;4159979;28;20033;-62
2021/12/06 01:00:55;;;;;;;5.50;3.30;;;6.50;99.90;;;;;;4154151;28;20038;-62
2021/12/06 01:02:56;;;;;;;4.27;3.30;;;6.50;99.90;;;;;;4156258;28;20109;-62
2021/12/06 01:04:57;;;;;;;5.63;3.42;;;6.50;99.90;;;;;;4159792;28;20033;-62
2021/12/06 01:06:57;;;;;;;6.80;3.97;;;6.60;99.90;;;;;;4154044;28;20090;-62
2021/12/06 01:08:59;;;;;;;4.97;3.58;;;6.60;99.90;;;;;;4151915;28;20109;-62
2021/12/06 01:11:00;;;;;;;5.43;3.40;;;6.60;99.90;;;;;;4156723;28;20044;-62
2021/12/06 01:13:03;;;;;;;4.38;3.33;;;6.60;99.90;;;;;;4155795;28;20057;-62
2021/12/06 01:15:06;;;;;;;5.55;3.22;;;6.60;99.90;;;;;;4158497;28;20545;-62
2021/12/06 01:17:07;;;;;;;6.90;3.55;;;6.60;99.90;;;;;;4158765;28;20045;-62
2021/12/06 01:19:08;;;;;;;5.28;3.13;;;6.60;99.90;;;;;;4156525;28;20033;-62
2021/12/06 01:21:37;;;;;;;8.52;3.72;;;6.60;99.90;;;;;;4155707;28;20099;-62
2021/12/06 01:23:59;;;;;;;5.07;3.03;;;6.60;99.90;;;;;;4154133;28;20474;-62
2021/12/06 01:30:24;;;;;;;4.88;3.22;;;6.50;99.90;;;;;;4150800;28;20147;-62
2021/12/06 01:39:14;;;;;;;6.35;3.67;;;6.50;99.90;;;;;;4153899;28;20034;-62
2021/12/06 01:41:15;;;;;;;5.03;4.13;;;6.40;99.90;;;;;;4150891;28;20471;-62
2021/12/06 01:43:16;;;;;;;6.80;4.43;;;6.40;99.90;;;;;;4156604;28;20041;-62
2021/12/06 01:45:17;;;;;;;6.55;4.32;;;6.50;99.90;;;;;;4157796;28;20524;-62
2021/12/06 01:47:20;;;;;;;6.68;4.93;;;6.40;99.90;;;;;;4158481;28;20167;-62
2021/12/06 01:49:25;;;;;;;7.43;4.63;;;6.40;99.90;;;;;;4159148;28;20037;-62
2021/12/06 01:51:27;;;;;;;7.15;4.55;;;6.40;99.90;;;;;;4153193;28;20034;-62
2021/12/06 01:53:28;;;;;;;7.57;4.70;;;6.40;99.90;;;;;;4152640;28;20029;-62
2021/12/06 01:55:32;;;;;;;8.60;4.88;;;6.40;99.90;;;;;;4155107;28;20510;-62
2021/12/06 01:57:33;;;;;;;6.07;4.57;;;6.40;99.90;;;;;;4153802;28;20041;-62
2021/12/06 01:59:34;;;;;;;7.43;4.85;;;6.40;99.90;;;;;;4158578;28;20554;-62
2021/12/06 02:01:36;;;;;;;6.95;4.72;;;6.40;99.90;;;;;;4153175;28;20033;-62
2021/12/06 02:03:38;;;;;;;5.60;4.45;;;6.30;99.90;;;;;;4152801;28;20496;-62
2021/12/06 02:05:41;;;;;;;8.85;4.75;;;6.40;99.90;;;;;;4157602;28;20057;-62
2021/12/06 02:07:42;;;;;;;8.30;4.88;;;6.20;99.90;;;;;;4158867;28;20113;-62
2021/12/06 02:09:45;;;;;;;8.05;4.95;;;6.20;99.90;;;;;;4158314;28;20412;-62
2021/12/06 02:11:46;;;;;;;6.47;4.82;;;6.20;99.90;;;;;;4158106;28;20033;-62
2021/12/06 02:13:58;;;;;;;7.75;5.45;;;6.20;99.90;;;;;;4158360;28;20045;-62
2021/12/06 02:15:59;;;;;;;7.47;5.35;;;6.20;99.90;;;;;;4160265;28;20078;-62
2021/12/06 02:18:08;;;;;;;7.57;5.03;;;6.20;99.90;;;;;;4160132;28;20033;-62
2021/12/06 02:20:24;;;;;;;7.60;5.32;;;6.20;99.90;;;;;;4161057;28;20029;-64
2021/12/06 02:22:27;;;;;;;7.13;5.35;;;6.20;99.90;;;;;;4161434;28;20034;-62
2021/12/06 02:24:31;;;;;;;6.47;4.75;;;6.20;99.90;;;;;;4161578;28;20495;-62
2021/12/06 02:26:31;;;;;;;6.68;5.25;;;6.20;99.90;;;;;;4161117;28;20021;-62
2021/12/06 02:28:32;;;;;;;7.22;5.00;;;6.30;99.90;;;;;;4161603;28;20494;-62
2021/12/06 02:30:33;;;;;;;9.23;5.88;;;6.30;99.90;;;;;;4155949;28;20519;-62
2021/12/06 02:32:35;;;;;;;5.38;4.13;;;6.30;99.90;;;;;;4156874;28;20053;-62
2021/12/06 02:34:38;;;;;;;6.68;5.30;;;6.30;99.90;;;;;;4161341;28;20065;-62
2021/12/06 02:36:39;;;;;;;7.80;5.57;;;6.30;99.90;;;;;;4155883;28;20060;-62
2021/12/06 02:38:39;;;;;;;8.20;5.65;;;6.30;99.90;;;;;;4161402;28;20033;-62
2021/12/06 02:40:40;;;;;;;8.73;5.15;;;6.30;99.90;;;;;;4160097;28;20036;-62
2021/12/06 02:42:44;;;;;;;7.38;5.18;;;6.30;99.90;;;;;;4161827;28;20088;-62
2021/12/06 02:44:46;;;;;;;8.13;5.28;;;6.30;99.90;;;;;;4151320;28;20071;-62
2021/12/06 02:46:46;;;;;;;7.97;5.38;;;6.30;99.90;;;;;;4160712;28;20044;-62
2021/12/06 02:48:47;;;;;;;8.60;5.32;;;6.30;99.90;;;;;;4161062;28;20026;-62
2021/12/06 02:50:55;;;;;;;6.93;5.20;;;6.30;99.90;;;;;;4160436;28;20384;-62
2021/12/06 02:52:56;;;;;;;9.00;5.68;;;6.30;99.90;;;;;;4161388;28;20025;-62
2021/12/06 02:54:58;;;;;;;7.28;5.50;;;6.30;99.90;;;;;;4161808;28;20038;-62
2021/12/06 02:59:11;;;;;;;8.13;5.47;;;6.30;99.90;;;;;;4160969;28;19959;-62
2021/12/06 03:01:33;;;;;;;7.25;4.95;;;6.20;99.90;;;;;;4160289;28;20041;-62
2021/12/06 03:03:34;;;;;;;7.35;5.00;;;6.30;99.90;;;;;;4156283;28;20112;-62
2021/12/06 03:05:35;;;;;;;8.23;4.90;;;6.20;99.90;;;;;;4158500;28;20084;-62
2021/12/06 03:07:37;;;;;;;8.07;4.57;;;6.20;99.90;;;;;;4156830;28;20388;-62
2021/12/06 03:09:39;;;;;;;11.05;5.85;;;6.20;99.90;;;;;;4164593;28;20028;-62
2021/12/06 03:11:42;;;;;;;;;;;6.20;99.90;;;;;;4160859;28;20183;-62
2021/12/06 03:13:44;;;;;;;7.00;4.93;;;6.20;99.90;;;;;;4157417;28;19968;-62
2021/12/06 03:15:44;;;;;;;7.05;4.95;;;6.20;99.90;;;;;;4162276;28;20476;-62
2021/12/06 03:17:46;;;;;;;5.88;4.65;;;6.20;99.90;;;;;;4161039;28;20037;-62
2021/12/06 03:19:48;;;;;;;7.32;4.85;;;6.20;99.90;;;;;;4160677;28;20030;-62
2021/12/06 03:21:49;;;;;;;6.65;4.70;;;6.20;99.90;;;;;;4155612;28;20105;-62
2021/12/06 03:23:51;;;;;;;8.98;5.07;;;6.30;99.90;;;;;;4160582;28;20357;-62
2021/12/06 03:25:52;;;;;;;8.35;5.18;;;6.30;99.90;;;;;;4159186;28;20125;-62
2021/12/06 03:27:52;;;;;;;6.88;5.10;;;6.20;99.90;;;;;;4152578;28;20034;-62
2021/12/06 03:29:53;;;;;;;6.82;5.55;;;6.20;99.90;;;;;;4159000;28;20038;-62
2021/12/06 03:31:54;;;;;;;6.90;5.35;;;6.20;99.90;;;;;;4155086;28;20530;-62
2021/12/06 03:33:56;;;;;;;7.95;5.07;;;6.10;99.90;;;;;;4160398;28;20095;-62
2021/12/06 03:35:57;;;;;;;6.90;5.18;;;6.20;99.90;;;;;;4155253;28;20029;-62
2021/12/06 03:37:57;;;;;;;8.73;5.25;;;6.20;99.90;;;;;;4159697;28;20041;-62
2021/12/06 03:39:58;;;;;;;7.72;4.95;;;6.10;99.90;;;;;;4160161;28;20030;-62
2021/12/06 03:42:02;;;;;;;5.47;4.70;;;6.10;99.90;;;;;;4159810;28;20472;-62
2021/12/06 03:44:03;;;;;;;6.22;4.50;;;6.10;99.90;;;;;;4155812;28;20093;-62
2021/12/06 03:46:05;;;;;;;6.35;4.63;;;6.10;99.90;;;;;;4158998;28;20096;-62
2021/12/06 03:48:05;;;;;;;5.38;4.10;;;6.00;99.90;;;;;;4160451;28;20033;-62
2021/12/06 03:50:08;;;;;;;5.78;4.20;;;6.00;99.90;;;;;;4158797;28;20029;-63
2021/12/06 03:52:10;;;;;;;5.35;4.13;;;6.00;99.90;;;;;;4155195;28;20180;-63
2021/12/06 03:54:26;;;;;;;6.38;4.60;;;6.00;99.90;;;;;;4160516;28;20037;-62
2021/12/06 03:56:27;;;;;;;6.57;4.18;;;5.90;99.90;;;;;;4153613;28;20088;-62
2021/12/06 03:58:27;;;;;;;7.40;4.55;;;5.90;99.90;;;;;;4160434;28;20034;-62
2021/12/06 04:00:28;;;;;;;4.55;4.03;;;5.90;99.90;;;;;;4157212;28;20029;-62
2021/12/06 04:02:31;;;;;;;4.95;4.22;;;5.90;99.90;;;;;;4154575;28;20078;-62
2021/12/06 04:04:32;;;;;;;4.43;3.53;;;5.80;99.90;;;;;;4155736;28;20041;-62
2021/12/06 04:06:35;;;;;;;4.78;3.70;;;5.80;99.90;;;;;;4159610;28;20104;-62
2021/12/06 04:08:35;;;;;;;5.03;3.92;;;5.70;99.90;;;;;;4160183;28;20453;-62
2021/12/06 04:10:36;;;;;;;5.63;4.15;;;5.70;99.90;;;;;;4156927;28;20103;-62
2021/12/06 04:12:38;;;;;;;7.00;4.70;;;5.70;99.90;;;;;;4154572;28;20042;-62
2021/12/06 04:14:39;;;;;;;9.80;4.35;;;5.70;99.90;;;;;;4159969;28;20080;-62
2021/12/06 04:16:41;;;;;;;8.85;4.72;;;5.70;99.90;;;;;;4153852;28;20068;-63
2021/12/06 04:18:44;;;;;;;5.80;4.68;;;5.60;99.90;;;;;;4160080;28;20518;-62
2021/12/06 04:20:45;;;;;;;8.40;4.78;;;5.60;99.90;;;;;;4155237;28;20038;-62
2021/12/06 04:22:46;;;;;;;6.15;4.95;;;5.60;99.90;;;;;;4159138;28;20037;-62
2021/12/06 04:24:47;;;;;;;5.82;3.75;;;5.60;99.90;;;;;;4159478;28;20041;-62
2021/12/06 04:26:48;;;;;;;5.32;4.22;;;5.60;99.90;;;;;;4159208;28;20536;-62
2021/12/06 04:28:57;;;;;;;5.03;3.83;;;5.50;99.90;;;;;;4159752;28;20080;-62
2021/12/06 04:30:58;;;;;;;6.38;4.20;;;5.50;99.90;;;;;;4152263;28;20113;-62
2021/12/06 04:32:59;;;;;;;5.80;4.22;;;5.40;99.90;;;;;;4159580;28;20145;-61
2021/12/06 04:34:59;;;;;;;6.45;5.10;;;5.50;99.90;;;;;;4159775;28;20041;-62
2021/12/06 04:37:00;;;;;;;6.13;4.55;;;5.40;99.90;;;;;;4157586;28;20480;-62
2021/12/06 04:39:01;;;;;;;5.55;4.38;;;5.40;99.90;;;;;;4156313;28;20029;-62
2021/12/06 04:41:03;;;;;;;7.18;4.90;;;5.40;99.90;;;;;;4158433;28;20488;-62
2021/12/06 04:43:04;;;;;;;8.18;4.88;;;5.40;99.90;;;;;;4158453;28;20520;-62
2021/12/06 04:45:05;;;;;;;7.45;4.63;;;5.40;99.90;;;;;;4155451;28;20061;-63
2021/12/06 04:47:07;;;;;;;5.93;3.90;;;5.40;99.90;;;;;;4158463;28;20046;-63
2021/12/06 04:49:08;;;;;;;6.28;4.45;;;5.30;99.90;;;;;;4158727;28;20522;-62
2021/12/06 04:51:09;;;;;;;7.97;4.78;;;5.30;99.90;;;;;;4158807;28;20025;-63
2021/12/06 04:53:15;;;;;;;6.47;4.65;;;5.30;99.90;;;;;;4159459;28;20104;-62
2021/12/06 04:55:29;;;;;;;8.00;5.00;;;5.30;99.90;;;;;;4158430;28;20486;-63
2021/12/06 04:57:41;;;;;;;6.95;4.95;;;5.30;99.90;;;;;;4159398;28;20640;-62
2021/12/06 04:59:54;;;;;;;6.10;4.60;;;5.20;99.90;;;;;;4156599;28;20045;-62
2021/12/06 05:01:57;;;;;;;7.03;4.93;;;5.20;99.90;;;;;;4157735;28;20430;-62
2021/12/06 05:04:03;;;;;;;6.68;4.70;;;5.20;99.90;;;;;;4158020;28;20040;-63
2021/12/06 05:06:34;;;;;;;9.15;4.93;;;5.20;99.90;;;;;;4157919;28;20104;-62
2021/12/06 05:08:40;;;;;;;7.18;5.03;;;5.20;99.90;;;;;;4149255;28;20480;-62
2021/12/06 05:10:42;;;;;;;7.40;5.32;;;5.10;99.90;;;;;;4155751;28;20025;-62
2021/12/06 05:12:44;;;;;;;6.90;5.18;;;5.10;99.90;;;;;;4157954;28;20034;-62
2021/12/06 05:14:45;;;;;;;5.57;4.33;;;5.10;99.90;;;;;;4154850;28;20051;-63
2021/12/06 05:16:45;;;;;;;7.53;4.82;;;5.00;99.90;;;;;;4158521;28;20308;-63
2021/12/06 05:18:47;;;;;;;6.82;4.65;;;4.90;99.90;;;;;;4159268;28;20068;-64
2021/12/06 05:20:48;;;;;;;6.60;4.75;;;4.90;99.90;;;;;;4147456;28;20104;-63
2021/12/06 05:22:49;;;;;;;5.57;4.22;;;4.80;99.90;;;;;;4159159;28;20056;-63
2021/12/06 05:24:50;;;;;;;6.75;4.72;;;4.80;99.90;;;;;;4158848;28;20502;-63
2021/12/06 05:26:51;;;;;;;7.22;4.80;;;4.80;99.90;;;;;;4151357;28;20492;-62
2021/12/06 05:28:56;;;;;;;10.55;6.15;;;4.70;99.90;;;;;;4158042;28;20026;-62
2021/12/06 05:30:57;;;;;;;12.73;8.23;;;4.70;99.90;;;;;;4157026;28;20084;-62
2021/12/06 05:32:59;;;;;;;16.05;10.18;;;4.70;99.90;;;;;;4155228;28;20026;-63
2021/12/06 05:35:04;;;;;;;22.23;12.50;;;4.70;99.90;;;;;;4159030;28;20030;-63
2021/12/06 05:37:11;;;;;;;22.52;13.38;;;4.70;99.90;;;;;;4157172;28;20113;-62
2021/12/06 05:39:12;;;;;;;19.92;11.68;;;4.70;99.90;;;;;;4157015;28;20029;-63
2021/12/06 05:41:13;;;;;;;18.25;10.32;;;4.70;99.90;;;;;;4164923;28;20147;-62
2021/12/06 05:43:13;;;;;;;14.43;8.40;;;4.70;99.90;;;;;;4158890;28;20041;-63
2021/12/06 05:45:17;;;;;;;11.15;7.03;;;4.60;99.90;;;;;;4157941;28;20029;-63
2021/12/06 05:47:18;;;;;;;10.63;6.43;;;4.60;99.90;;;;;;4158878;28;20108;-63
2021/12/06 05:49:19;;;;;;;10.05;6.10;;;4.60;99.90;;;;;;4158255;28;20037;-62
2021/12/06 05:51:19;;;;;;;8.73;5.72;;;4.60;99.90;;;;;;4153130;28;20100;-62
2021/12/06 05:53:21;;;;;;;9.27;5.70;;;4.60;99.90;;;;;;4157099;28;20037;-63
2021/12/06 05:55:27;;;;;;;6.68;4.85;;;4.50;99.90;;;;;;4152604;28;20113;-63
2021/12/06 05:57:27;;;;;;;5.82;4.60;;;4.50;99.90;;;;;;4157482;28;20033;-62
2021/12/06 05:59:28;;;;;;;6.15;4.97;;;4.50;99.90;;;;;;4154669;28;20030;-63
2021/12/06 06:01:30;;;;;;;5.53;4.47;;;4.50;99.90;;;;;;4156566;28;20040;-62
2021/12/06 06:03:31;;;;;;;6.05;4.25;;;4.50;99.90;;;;;;4154238;28;20034;-61
2021/12/06 06:05:36;;;;;;;5.55;4.50;;;4.50;99.90;;;;;;4160158;28;20416;-62
2021/12/06 06:07:37;;;;;;;6.03;4.53;;;4.40;99.90;;;;;;4157628;28;20502;-63
2021/12/06 06:09:37;;;;;;;5.95;4.07;;;4.50;99.90;;;;;;4153965;28;20041;-62
2021/12/06 06:11:40;;;;;;;7.00;4.53;;;4.40;99.90;;;;;;4157631;28;20492;-63
2021/12/06 06:13:40;;;;;;;8.75;4.65;;;4.40;99.90;;;;;;4151036;28;20472;-62
2021/12/06 06:15:41;;;;;;;8.95;5.07;;;4.40;99.90;;;;;;4155172;28;20045;-63
2021/12/06 06:17:44;;;;;;;8.15;5.00;;;4.40;99.90;;;;;;4154313;28;20026;-63
2021/12/06 06:19:52;;;;;;;8.23;4.75;;;4.40;99.90;;;;;;4155781;28;20534;-63
2021/12/06 06:21:53;;;;;;;8.32;4.63;;;4.40;99.90;;;;;;4157484;28;20030;-62
2021/12/06 06:23:53;;;;;;;10.50;4.85;;;4.40;99.90;;;;;;4158756;28;20460;-63
2021/12/06 06:25:54;;;;;;;10.50;5.32;;;4.40;99.90;;;;;;4154138;28;20045;-63
2021/12/06 06:27:55;;;;;;;9.35;5.40;;;4.40;99.90;;;;;;4161137;28;20064;-63
2021/12/06 06:29:56;;;;;;;9.63;4.97;;;4.40;99.90;;;;;;4163018;28;20025;-63
2021/12/06 06:31:58;;;;;;;14.40;5.78;;;4.40;99.90;;;;;;4160051;28;20353;-62
2021/12/06 06:33:58;;;;;;;9.07;5.20;;;4.40;99.90;;;;;;4151435;28;20401;-63
2021/12/06 06:35:59;;;;;;;8.73;4.97;;;4.40;99.90;;;;;;4156256;28;20273;-63
2021/12/06 06:38:00;;;;;;;10.43;5.65;;;4.40;99.90;;;;;;4158844;28;20068;-62
2021/12/06 06:40:02;;;;;;;8.48;5.47;;;4.40;99.90;;;;;;4158433;28;20034;-63
2021/12/06 06:42:03;;;;;;;7.82;4.68;;;4.40;99.90;;;;;;4157277;28;20060;-62
2021/12/06 06:44:05;;;;;;;9.23;5.32;;;4.40;99.90;;;;;;4153285;28;20034;-63
2021/12/06 06:46:09;;;;;;;8.73;5.10;;;4.40;99.90;;;;;;4158151;28;20093;-64
2021/12/06 06:48:10;;;;;;;6.97;5.07;;;4.40;99.90;;;;;;4158570;28;20096;-63
2021/12/06 06:50:12;;;;;;;8.25;5.43;;;4.40;99.90;;;;;;4155233;28;20033;-65
2021/12/06 06:52:13;;;;;;;8.05;4.95;;;4.40;99.90;;;;;;4152078;28;20034;-61
2021/12/06 06:54:15;;;;;;;12.98;5.75;;;4.40;99.90;;;;;;4155561;28;20041;-63
2021/12/06 06:56:15;;;;;;;8.30;5.03;;;4.40;99.90;;;;;;4153371;28;20025;-63
2021/12/06 06:58:17;;;;;;;7.30;5.43;;;4.40;99.90;;;;;;4152547;28;20036;-64
2021/12/06 07:00:25;;;;;;;8.27;5.10;;;4.40;99.90;;;;;;4154867;28;20033;-64
2021/12/06 07:02:26;;;;;;;7.75;4.95;;;4.40;99.90;;;;;;4169482;28;20113;-63
2021/12/06 07:04:27;;;;;;;8.30;4.85;;;4.40;99.90;;;;;;4160069;28;20029;-63
2021/12/06 07:06:29;;;;;;;8.00;5.28;;;4.40;99.90;;;;;;4156553;28;20042;-61
2021/12/06 07:08:30;;;;;;;8.45;5.28;;;4.40;99.90;;;;;;4161769;28;20540;-64
2021/12/06 07:10:31;;;;;;;8.55;5.63;;;4.30;99.90;;;;;;4156819;28;20038;-63
2021/12/06 07:12:34;;;;;;;9.00;5.95;;;4.40;99.90;;;;;;4160619;28;20040;-63
2021/12/06 07:14:35;;;;;;;8.80;5.50;;;4.40;99.90;;;;;;4161730;28;20392;-63
2021/12/06 07:16:35;;;;;;;8.63;5.72;;;4.30;99.90;;;;;;4159699;28;20053;-63
2021/12/06 07:18:37;;;;;;;7.63;5.47;;;4.30;99.90;;;;;;4154716;28;20389;-62
2021/12/06 07:20:37;;;;;;;9.25;5.45;;;4.30;99.90;;;;;;4160732;28;20383;-60
2021/12/06 07:22:38;;;;;;;8.05;5.40;;;4.30;99.90;;;;;;4161341;28;20062;-63
2021/12/06 07:24:39;;;;;;;8.25;5.45;;;4.30;99.90;;;;;;4160290;28;20046;-61
2021/12/06 07:26:40;;;;;;;8.68;5.45;;;4.30;99.90;;;;;;4156201;28;20416;-61
2021/12/06 07:28:43;;;;;;;7.00;5.07;;;4.20;99.90;;;;;;4161580;28;20030;-62
2021/12/06 07:30:44;;;;;;;6.97;4.70;;;4.20;99.90;;;;;;4166566;28;20038;-62
2021/12/06 07:32:45;;;;;;;8.50;4.72;;;4.20;99.90;;;;;;4165773;28;20392;-63
2021/12/06 07:34:47;;;;;;;8.82;5.70;;;4.20;99.90;;;;;;4165146;28;20034;-61
2021/12/06 07:36:48;;;;;;;8.90;6.28;;;4.20;99.90;;;;;;4165141;28;20392;-62
2021/12/06 07:38:50;;;;;;;10.45;6.30;;;4.20;99.90;;;;;;4162249;28;20029;-61
2021/12/06 07:40:51;;;;;;;9.77;6.15;;;4.10;99.90;;;;;;4155661;28;20030;-62
2021/12/06 07:42:52;;;;;;;11.43;5.88;;;4.20;99.90;;;;;;4155670;28;20026;-63
2021/12/06 07:44:52;;;;;;;11.18;6.20;;;4.20;99.90;;;;;;4152908;28;20472;-63
2021/12/06 07:46:53;;;;;;;12.02;6.65;;;4.20;99.90;;;;;;4158531;28;20465;-63
2021/12/06 07:48:54;;;;;;;11.95;6.65;;;4.30;99.90;;;;;;4160303;28;20069;-61
2021/12/06 07:50:55;;;;;;;15.05;7.68;;;4.20;99.90;;;;;;4159791;28;20030;-62
2021/12/06 07:52:56;;;;;;;10.95;6.55;;;4.30;99.90;;;;;;4159932;28;20030;-62
2021/12/06 07:54:59;;;;;;;11.27;6.75;;;4.30;99.90;;;;;;4158925;28;20034;-62
2021/12/06 07:57:00;;;;;;;11.40;6.50;;;4.30;99.90;;;;;;4159675;28;20112;-63
2021/12/06 07:59:02;;;;;;;13.25;6.95;;;4.30;99.90;;;;;;4160892;28;20033;-62
2021/12/06 08:01:03;;;;;;;11.88;7.15;;;4.40;99.90;;;;;;4149909;28;20385;-64
2021/12/06 08:03:04;;;;;;;11.68;6.32;;;4.40;99.90;;;;;;4159970;28;20044;-63
2021/12/06 08:07:25;;;;;;;12.73;7.65;;;4.50;99.90;;;;;;4156275;28;20026;-63
2021/12/06 08:09:26;;;;;;;10.90;7.07;;;4.60;99.90;;;;;;4160237;28;20120;-62
2021/12/06 08:11:26;;;;;;;9.52;5.70;;;4.80;99.90;;;;;;4159302;28;20428;-61
2021/12/06 08:13:29;;;;;;;12.25;6.82;;;4.90;99.90;;;;;;4156049;28;20060;-61
2021/12/06 08:15:31;;;;;;;13.27;6.00;;;5.00;99.90;;;;;;4159081;28;20529;-61
2021/12/06 08:17:31;;;;;;;11.68;6.20;;;5.20;99.90;;;;;;4151801;28;20104;-61
2021/12/06 08:19:32;;;;;;;10.93;6.03;;;5.30;99.90;;;;;;4159968;28;20034;-61
2021/12/06 08:21:33;;;;;;;11.73;6.30;;;5.40;99.90;;;;;;4161843;28;20034;-61
2021/12/06 08:23:34;;;;;;;9.88;6.00;;;5.50;99.90;;;;;;4154850;28;20030;-61
2021/12/06 08:25:37;;;;;;;8.43;5.28;;;5.50;99.90;;;;;;4156222;28;20136;-61
2021/12/06 08:27:38;;;;;;;11.25;5.90;;;5.50;99.90;;;;;;4159765;28;20033;-62
2021/12/06 08:29:39;;;;;;;12.00;6.20;;;5.30;99.90;;;;;;4160312;28;20091;-62
2021/12/06 08:31:41;;;;;;;15.02;7.20;;;4.90;99.90;;;;;;4155906;28;20040;-62
2021/12/06 08:33:42;;;;;;;10.43;6.38;;;4.70;99.90;;;;;;4160007;28;20037;-62
2021/12/06 08:35:46;;;;;;;11.68;7.22;;;4.30;99.90;;;;;;4159077;28;20032;-62
2021/12/06 08:37:48;;;;;;;10.20;6.68;;;4.00;99.90;;;;;;4159594;28;20542;-61
2021/12/06 08:39:48;;;;;;;10.02;6.88;;;3.80;99.90;;;;;;4158154;28;20061;-62
2021/12/06 08:41:49;;;;;;;12.20;7.30;;;3.70;99.90;;;;;;4150811;28;20042;-61
2021/12/06 08:43:51;;;;;;;12.70;7.97;;;3.60;99.90;;;;;;4157992;28;20109;-62
2021/12/06 08:45:55;;;;;;;11.93;7.57;;;3.70;99.90;;;;;;4159218;28;20087;-62
2021/12/06 08:47:57;;;;;;;12.98;8.13;;;3.80;99.90;;;;;;4152044;28;20081;-61
2021/12/06 08:49:58;;;;;;;15.25;8.75;;;4.00;99.90;;;;;;4159575;28;20377;-62
2021/12/06 08:51:59;;;;;;;13.90;8.05;;;4.10;99.90;;;;;;4158208;28;20037;-61
2021/12/06 08:54:01;;;;;;;13.40;8.05;;;4.20;99.90;;;;;;4159343;28;20029;-62
2021/12/06 08:56:02;;;;;;;13.25;8.90;;;4.30;99.90;;;;;;4162699;28;20498;-61
2021/12/06 08:58:03;;;;;;;13.90;8.75;;;4.30;99.90;;;;;;4157400;28;20450;-61
2021/12/06 09:00:10;;;;;;;13.02;8.32;;;4.40;99.90;;;;;;4159006;28;20151;-62
2021/12/06 09:02:11;;;;;;;16.27;9.40;;;4.40;99.90;;;;;;4158802;28;20037;-61
2021/12/06 09:04:12;;;;;;;13.40;8.95;;;4.40;99.90;;;;;;4158958;28;20045;-62
2021/12/06 09:06:13;;;;;;;15.73;8.80;;;4.40;99.90;;;;;;4154250;28;20036;-62
2021/12/06 09:08:14;;;;;;;17.25;9.93;;;4.40;99.90;;;;;;4159286;28;20113;-61
2021/12/06 09:10:15;;;;;;;15.27;9.82;;;4.40;99.90;;;;;;4158564;28;20025;-62
2021/12/06 09:12:19;;;;;;;18.25;9.90;;;4.50;99.90;;;;;;4153498;28;20083;-61
2021/12/06 09:14:21;;;;;;;18.40;9.88;;;4.50;99.90;;;;;;4157266;28;20037;-62
2021/12/06 09:16:22;;;;;;;14.38;9.48;;;4.60;99.90;;;;;;4157009;28;20057;-62
2021/12/06 09:18:23;;;;;;;16.27;9.32;;;4.70;99.90;;;;;;4159019;28;20448;-62
2021/12/06 09:20:30;;;;;;;18.67;10.40;;;4.80;99.90;;;;;;4152999;28;20155;-62
2021/12/06 09:22:30;;;;;;;16.92;9.43;;;4.70;99.90;;;;;;4159029;28;20034;-62
2021/12/06 09:24:32;;;;;;;15.90;10.02;;;4.80;99.90;;;;;;4162740;28;20044;-62
2021/12/06 09:26:33;;;;;;;18.27;10.05;;;4.70;99.90;;;;;;4154237;28;20409;-61
2021/12/06 09:28:34;;;;;;;15.38;8.93;;;4.70;99.90;;;;;;4151106;28;20112;-61
2021/12/06 09:30:36;;;;;;;16.25;9.55;;;4.70;99.90;;;;;;4157994;28;20108;-62
2021/12/06 09:32:37;;;;;;;16.55;10.10;;;4.80;99.90;;;;;;4158812;28;20038;-61
2021/12/06 09:34:41;;;;;;;14.93;9.05;;;4.70;99.90;;;;;;4166191;28;20037;-61
2021/12/06 09:36:41;;;;;;;16.17;8.95;;;4.70;99.90;;;;;;4158121;28;20387;-62
2021/12/06 09:38:44;;;;;;;17.25;9.27;;;4.70;99.90;;;;;;4157665;28;20065;-61
2021/12/06 09:40:49;;;;;;;14.60;8.38;;;4.60;99.90;;;;;;4157918;28;20034;-62
2021/12/06 09:42:51;;;;;;;12.85;8.15;;;4.70;99.90;;;;;;4152666;28;20045;-61
2021/12/06 09:44:55;;;;;;;13.52;8.55;;;4.70;99.90;;;;;;4159559;28;20041;-61
2021/12/06 09:46:55;;;;;;;14.38;8.98;;;4.60;99.90;;;;;;4161750;28;20092;-62
2021/12/06 09:48:56;;;;;;;12.55;8.15;;;4.60;99.90;;;;;;4158834;28;20033;-61
2021/12/06 09:51:03;;;;;;;15.50;8.93;;;4.50;99.90;;;;;;4153518;28;20046;-61
2021/12/06 09:53:08;;;;;;;15.18;9.60;;;4.60;99.90;;;;;;4151895;28;20041;-62
2021/12/06 09:55:09;;;;;;;15.18;9.55;;;4.50;99.90;;;;;;4159338;28;20506;-63
2021/12/06 09:57:10;;;;;;;18.45;9.98;;;4.50;99.90;;;;;;4157734;28;20053;-62
2021/12/06 09:59:14;;;;;;;16.75;9.95;;;4.50;99.90;;;;;;4152599;28;20055;-61
2021/12/06 10:01:26;;;;;;;20.13;10.68;;;4.50;99.90;;;;;;4157849;28;20088;-62
2021/12/06 10:03:29;;;;;;;18.40;10.40;;;4.50;99.90;;;;;;4158109;28;20030;-62
2021/12/06 10:05:30;;;;;;;15.82;9.05;;;4.40;99.90;;;;;;4153712;28;20099;-62
2021/12/06 10:07:31;;;;;;;13.82;8.80;;;4.40;99.90;;;;;;4152086;28;20033;-62
2021/12/06 10:09:33;;;;;;;13.93;8.95;;;4.20;99.90;;;;;;4158390;28;20061;-62
2021/12/06 10:11:34;;;;;;;12.57;8.15;;;4.20;99.90;;;;;;4154293;28;20030;-62
2021/12/06 10:13:36;;;;;;;13.75;9.10;;;4.20;99.90;;;;;;4158446;28;20026;-62
2021/12/06 10:15:36;;;;;;;15.80;9.50;;;4.20;99.90;;;;;;4155963;28;20033;-62
2021/12/06 10:17:37;;;;;;;17.13;8.75;;;4.10;99.90;;;;;;4150413;28;20050;-62
2021/12/06 10:19:38;;;;;;;13.30;8.95;;;4.10;99.90;;;;;;4154855;28;20041;-62
2021/12/06 10:21:39;;;;;;;14.75;9.13;;;4.10;99.90;;;;;;4157363;28;20037;-62
2021/12/06 10:23:42;;;;;;;15.15;9.70;;;4.10;99.90;;;;;;4154979;28;20420;-62
2021/12/06 10:25:46;;;;;;;15.88;9.90;;;4.10;99.90;;;;;;4157786;28;20400;-62
2021/12/06 10:27:54;;;;;;;14.40;10.13;;;4.10;99.90;;;;;;4158484;28;20444;-62
2021/12/06 10:30:02;;;;;;;14.73;9.43;;;4.10;99.90;;;;;;4156668;28;20037;-62
2021/12/06 10:32:12;;;;;;;15.63;10.75;;;4.10;99.90;;;;;;4150009;28;20026;-62
2021/12/06 10:34:19;;;;;;;17.67;10.90;;;4.20;99.90;;;;;;4158716;28;20539;-62
2021/12/06 10:36:22;;;;;;;17.90;11.10;;;4.10;99.90;;;;;;4152248;28;20030;-62
2021/12/06 10:38:27;;;;;;;15.70;10.43;;;4.10;99.90;;;;;;4161458;28;20569;-62
2021/12/06 10:40:31;;;;;;;17.80;11.38;;;4.20;99.90;;;;;;4157813;28;20120;-62
2021/12/06 10:42:41;;;;;;;20.80;12.70;;;4.20;99.90;;;;;;4156279;28;20033;-62
2021/12/06 10:44:50;;;;;;;22.73;13.70;;;4.30;99.90;;;;;;4160940;28;20104;-62
2021/12/06 10:46:52;;;;;;;19.00;12.65;;;4.30;99.90;;;;;;4155815;28;20042;-62
2021/12/06 10:48:57;;;;;;;22.25;13.48;;;4.30;99.90;;;;;;4153827;28;20033;-62
2021/12/06 10:51:10;;;;;;;18.58;12.40;;;4.30;99.90;;;;;;4160743;28;20068;-62
2021/12/06 10:53:12;;;;;;;22.55;14.38;;;4.40;99.90;;;;;;4161038;28;20397;-62
2021/12/06 10:55:13;;;;;;;23.20;14.00;;;4.40;99.90;;;;;;4160639;28;20029;-63
2021/12/06 10:57:14;;;;;;;23.95;14.23;;;4.40;99.90;;;;;;4161133;28;20168;-62
2021/12/06 10:59:24;;;;;;;20.70;13.25;;;4.30;99.90;;;;;;4161209;28;20030;-62